Time;durP1;ratioP1;P1;durP2;ratioP2;P2;SDS_P1;SDS_P2;PMS_P1;PMS_P2;Temp;Humidity;BMP_temperature;BMP_pressure;BME280_temperature;BME280_humidity;BME280_pressure;Samples;Min_cycle;Max_cycle;Signal;HPM_P1;HPM_P2
2023/01/06 00:01:29;;;;;;;;;1.00;1.00;;;;;12.60;70.56;101779.84;5053610;28;45916;-68
2023/01/06 00:03:59;;;;;;;;;1.00;1.00;;;;;12.61;70.71;101781.59;5053881;28;45354;-69
2023/01/06 00:06:27;;;;;;;;;0.67;0.67;;;;;12.60;70.62;101779.84;5053998;28;45437;-66
2023/01/06 00:08:58;;;;;;;;;4.67;1.00;;;;;12.53;70.78;101759.63;5053465;28;46692;-69
2023/01/06 00:11:24;;;;;;;;;3.00;1.33;;;;;12.48;70.61;101771.81;5053159;28;45404;-69
2023/01/06 00:13:50;;;;;;;;;1.00;1.00;;;;;12.42;70.67;101772.63;5053842;28;45442;-68
2023/01/06 00:16:18;;;;;;;;;0.00;0.00;;;;;12.40;71.08;101770.88;5054539;28;45614;-68
2023/01/06 00:18:44;;;;;;;;;1.00;1.00;;;;;12.14;71.24;101705.78;5056595;28;46203;-69
2023/01/06 00:21:11;;;;;;;;;1.00;1.00;;;;;12.50;71.02;101771.00;5057810;28;45403;-70
2023/01/06 00:23:37;;;;;;;;;5.00;1.00;;;;;12.49;71.17;101766.59;5057780;28;45371;-69
2023/01/06 00:26:05;;;;;;;;;1.00;1.00;;;;;12.59;70.99;101764.06;5073498;28;45597;-69
2023/01/06 00:28:31;;;;;;;;;0.33;0.33;;;;;12.58;71.22;101784.22;5054588;28;45537;-68
2023/01/06 00:30:56;;;;;;;;;1.00;1.00;;;;;12.68;71.10;101795.69;5052976;28;45699;-67
2023/01/06 00:33:23;;;;;;;;;0.00;0.00;;;;;12.68;70.46;101783.44;5052082;28;45568;-68
2023/01/06 00:35:49;;;;;;;;;1.33;0.00;;;;;12.63;70.92;101776.38;5053845;28;45732;-67
2023/01/06 00:38:15;;;;;;;;;4.00;1.00;;;;;12.75;70.72;101789.63;5049869;28;47654;-68
2023/01/06 00:40:40;;;;;;;;;0.67;0.00;;;;;12.69;70.45;101777.31;5053019;28;45712;-67
2023/01/06 00:43:06;;;;;;;;;0.00;0.00;;;;;12.71;70.30;101785.19;5056144;28;45413;-67
2023/01/06 00:45:32;;;;;;;;;1.00;1.00;;;;;12.76;71.07;101793.13;5054252;28;45356;-68
2023/01/06 00:47:57;;;;;;;;;1.00;1.00;;;;;12.67;70.62;101786.03;5050731;28;46595;-65
2023/01/06 00:50:23;;;;;;;;;1.33;1.00;;;;;12.73;70.38;101791.34;5052801;28;45511;-68
2023/01/06 00:52:48;;;;;;;;;0.67;0.67;;;;;12.68;70.76;101777.28;5051800;28;45594;-69
2023/01/06 00:55:14;;;;;;;;;1.00;0.33;;;;;12.78;70.74;101796.66;5053372;28;45522;-67
2023/01/06 00:57:40;;;;;;;;;1.33;1.33;;;;;12.75;70.42;101783.50;5053345;28;45623;-68
2023/01/06 01:00:07;;;;;;;;;1.00;1.00;;;;;12.75;70.64;101794.88;5053431;28;45556;-68
2023/01/06 01:02:33;;;;;;;;;1.00;1.00;;;;;12.66;70.44;101787.78;5056550;28;45547;-70
2023/01/06 01:04:59;;;;;;;;;1.00;1.00;;;;;12.62;71.02;101785.09;5057750;28;45447;-68
2023/01/06 01:07:24;;;;;;;;;0.00;0.00;;;;;12.65;71.08;101793.91;5055499;28;45672;-67
2023/01/06 01:09:50;;;;;;;;;2.67;0.00;;;;;12.47;71.11;101767.44;5053553;28;45841;-68
2023/01/06 01:12:16;;;;;;;;;0.67;0.00;;;;;12.61;71.06;101786.84;5053879;28;45428;-68
2023/01/06 01:14:47;;;;;;;;;1.00;1.00;;;;;12.64;71.09;101794.75;5055630;28;45444;-68
2023/01/06 01:17:18;;;;;;;;;1.00;0.00;;;;;12.64;71.46;101797.41;5056346;28;45401;-69
2023/01/06 01:19:44;;;;;;;;;0.00;0.00;;;;;12.61;71.09;101791.25;5053432;28;45290;-65
2023/01/06 01:22:10;;;;;;;;;0.00;0.00;;;;;12.63;71.18;101787.75;5052092;28;45845;-69
2023/01/06 01:24:37;;;;;;;;;1.67;0.67;;;;;12.53;71.78;101783.28;5053181;28;45516;-69
2023/01/06 01:27:03;;;;;;;;;0.67;0.67;;;;;12.52;71.96;101779.75;5051181;28;46187;-69
2023/01/06 01:29:29;;;;;;;;;2.00;0.33;;;;;12.50;72.42;101773.63;5056137;28;45500;-69
2023/01/06 01:31:54;;;;;;;;;0.00;0.00;;;;;12.48;72.44;101775.34;5060399;28;45693;-66
2023/01/06 01:34:21;;;;;;;;;0.00;0.00;;;;;12.44;72.19;101765.66;5058954;28;45475;-68
2023/01/06 01:36:48;;;;;;;;;0.33;0.00;;;;;12.53;72.53;101772.78;5055661;28;45456;-65
2023/01/06 01:39:16;;;;;;;;;0.00;0.00;;;;;12.55;72.74;101776.28;5058876;28;45640;-68
2023/01/06 01:41:42;;;;;;;;;1.00;1.00;;;;;12.55;72.21;101775.41;5057493;28;45859;-66
2023/01/06 01:44:45;;;;;;;;;0.00;0.00;;;;;12.53;72.02;101770.16;5054674;28;45564;-69
2023/01/06 01:47:15;;;;;;;;;0.00;0.00;;;;;12.50;72.55;101757.84;5042120;28;45696;-68
2023/01/06 01:49:44;;;;;;;;;0.00;0.00;;;;;12.43;72.55;101740.28;5057248;28;45451;-67
2023/01/06 01:52:11;;;;;;;;;0.33;0.33;;;;;12.53;72.54;101764.88;5055796;28;45620;-67
2023/01/06 01:54:38;;;;;;;;;0.33;0.33;;;;;12.36;72.66;101751.53;5056746;28;45701;-68
2023/01/06 01:57:13;;;;;;;;;0.00;0.00;;;;;12.43;72.64;101761.28;5055482;28;46153;-67
2023/01/06 01:59:40;;;;;;;;;0.00;0.00;;;;;12.46;72.77;101760.44;5054576;28;45393;-68
2023/01/06 02:02:05;;;;;;;;;0.00;0.00;;;;;12.48;72.39;101753.41;5073563;27;45429;-69
2023/01/06 02:04:36;;;;;;;;;0.00;0.00;;;;;12.43;72.32;101768.25;5060445;28;45373;-69
2023/01/06 02:07:03;;;;;;;;;0.00;0.00;;;;;12.41;72.77;101748.97;5060086;28;45501;-68
2023/01/06 02:09:34;;;;;;;;;1.00;0.00;;;;;12.45;72.56;101762.16;5075074;28;45705;-70
2023/01/06 02:12:00;;;;;;;;;1.33;0.33;;;;;12.35;72.91;101756.81;5059473;28;45580;-68
2023/01/06 02:14:31;;;;;;;;;0.00;0.00;;;;;12.37;72.56;101757.69;5058678;28;45368;-67
2023/01/06 02:17:05;;;;;;;;;1.00;0.00;;;;;12.38;72.86;101762.09;5060019;28;45792;-70
2023/01/06 02:20:01;;;;;;;;;0.00;0.00;;;;;12.42;72.58;101759.50;5070759;28;45441;-67
2023/01/06 02:22:48;;;;;;;;;0.00;0.00;;;;;12.32;73.57;101754.16;5037800;28;45924;-67
2023/01/06 02:25:35;;;;;;;;;0.33;0.00;;;;;12.33;73.48;101759.41;5042796;28;46040;-68
2023/01/06 02:28:26;;;;;;;;;1.00;0.00;;;;;12.29;73.39;101762.84;5074306;28;47910;-68
2023/01/06 02:31:13;;;;;;;;;0.00;0.00;;;;;12.20;73.83;101766.28;5059250;28;45246;-68
2023/01/06 02:34:05;;;;;;;;;1.00;0.00;;;;;12.26;73.88;101761.06;5045215;28;45469;-68
2023/01/06 02:37:15;;;;;;;;;0.00;0.00;;;;;12.31;73.79;101758.50;5059784;28;45452;-68
2023/01/06 02:39:49;;;;;;;;;0.00;0.00;;;;;12.33;73.19;101758.53;5055226;28;45580;-68
2023/01/06 02:42:26;;;;;;;;;0.00;0.00;;;;;12.19;73.34;101742.59;5070137;28;45562;-69
2023/01/06 02:45:15;;;;;;;;;1.00;0.67;;;;;12.25;73.36;101751.44;5064463;28;45393;-67
2023/01/06 02:47:55;;;;;;;;;0.67;0.00;;;;;12.26;73.60;101747.06;5052415;28;45508;-69
2023/01/06 02:50:29;;;;;;;;;0.00;0.00;;;;;12.16;73.86;101730.31;5057326;28;45417;-66
2023/01/06 02:53:11;;;;;;;;;1.00;0.00;;;;;12.14;73.82;101726.78;5059198;28;45508;-65
2023/01/06 02:55:49;;;;;;;;;0.67;0.00;;;;;12.15;73.43;101735.53;5041402;28;45519;-66
2023/01/06 02:58:47;;;;;;;;;0.00;0.00;;;;;12.12;74.03;101707.50;5054338;28;45619;-65
2023/01/06 03:01:24;;;;;;;;;0.00;0.00;;;;;12.23;73.50;101707.63;5055013;28;46247;-65
2023/01/06 03:03:52;;;;;;;;;0.00;0.00;;;;;12.20;73.44;101713.75;5054550;28;45485;-65
2023/01/06 03:06:24;;;;;;;;;0.00;0.00;;;;;12.21;73.16;101702.34;5056683;28;45487;-66
2023/01/06 03:08:53;;;;;;;;;0.67;0.33;;;;;12.15;74.10;101709.28;5058658;28;45630;-67
2023/01/06 03:11:19;;;;;;;;;0.00;0.00;;;;;12.14;73.82;101704.91;5058764;28;46328;-64
2023/01/06 03:14:38;;;;;;;;;0.33;0.33;;;;;12.22;73.75;101714.66;5058477;28;45666;-63
2023/01/06 03:17:04;;;;;;;;;0.33;0.33;;;;;12.26;73.44;101707.66;5001391;28;45719;-67
2023/01/06 03:19:31;;;;;;;;;0.33;0.00;;;;;12.24;73.77;101706.75;5048166;28;45466;-68
2023/01/06 03:21:58;;;;;;;;;0.33;0.33;;;;;12.23;73.71;101705.00;5056869;28;45779;-68
2023/01/06 03:24:24;;;;;;;;;1.00;1.00;;;;;12.32;73.69;101714.75;5053029;28;45538;-67
2023/01/06 03:26:52;;;;;;;;;0.00;0.00;;;;;12.35;73.48;101712.16;5055174;28;45243;-69
2023/01/06 03:29:20;;;;;;;;;1.00;1.00;;;;;12.35;73.33;101709.50;5055074;28;45602;-68
2023/01/06 03:32:00;;;;;;;;;2.00;1.00;;;;;12.35;73.15;101714.78;5054510;28;46194;-68
2023/01/06 03:34:41;;;;;;;;;0.00;0.00;;;;;12.36;73.49;101716.53;5054445;28;45801;-70
2023/01/06 03:37:23;;;;;;;;;2.67;0.33;;;;;12.38;73.33;101718.28;5055772;28;45436;-71
2023/01/06 03:40:08;;;;;;;;;0.00;0.00;;;;;12.37;73.21;101716.53;5057343;28;45567;-67
2023/01/06 03:45:55;;;;;;;;;0.33;0.33;;;;;12.26;73.44;101705.91;5014327;28;45697;-68
2023/01/06 03:48:47;;;;;;;;;0.00;0.00;;;;;12.19;73.36;101711.09;5011776;28;45556;-67
2023/01/06 03:51:37;;;;;;;;;0.00;0.00;;;;;12.27;73.85;101709.44;5040297;28;45373;-69
2023/01/06 03:54:15;;;;;;;;;2.00;0.00;;;;;12.19;73.57;101685.69;5053540;28;45761;-66
2023/01/06 03:56:48;;;;;;;;;0.00;0.00;;;;;12.28;73.75;101700.69;5054418;28;45844;-67
2023/01/06 03:59:20;;;;;;;;;0.33;0.00;;;;;12.24;73.77;101696.25;5057850;28;45386;-68
2023/01/06 04:01:47;;;;;;;;;0.00;0.00;;;;;12.25;73.23;101683.16;5057463;28;45427;-67
2023/01/06 04:04:15;;;;;;;;;0.00;0.00;;;;;12.21;73.78;101681.34;5058466;28;46350;-68
2023/01/06 04:06:41;;;;;;;;;3.33;0.00;;;;;12.07;74.14;101664.56;5058586;28;45551;-68
2023/01/06 04:09:06;;;;;;;;;2.00;0.00;;;;;12.11;74.62;101684.75;5058533;28;45405;-67
2023/01/06 04:14:16;;;;;;;;;0.00;0.00;;;;;12.04;74.53;101661.91;5054393;28;45398;-67
2023/01/06 04:16:41;;;;;;;;;1.00;0.00;;;;;12.07;74.31;101685.56;5054959;28;45430;-68
2023/01/06 04:19:07;;;;;;;;;0.67;0.00;;;;;12.04;74.49;101683.78;5058182;28;45508;-68
2023/01/06 04:21:32;;;;;;;;;0.00;0.00;;;;;11.98;74.58;101678.50;5058304;28;45464;-69
2023/01/06 04:23:58;;;;;;;;;0.67;0.67;;;;;11.99;75.20;101676.75;5057845;28;45657;-68
2023/01/06 04:26:23;;;;;;;;;0.00;0.00;;;;;12.00;75.27;101683.75;5058089;28;45342;-68
2023/01/06 04:28:49;;;;;;;;;0.00;0.00;;;;;12.05;75.18;101692.53;5057158;28;45282;-68
2023/01/06 04:31:15;;;;;;;;;0.33;0.00;;;;;12.00;74.82;101687.25;5054141;28;45479;-67
2023/01/06 04:33:41;;;;;;;;;0.67;0.00;;;;;11.94;75.43;101683.69;5053737;28;45982;-68
2023/01/06 04:36:07;;;;;;;;;1.00;0.00;;;;;11.95;75.38;101685.44;5053854;28;45482;-67
2023/01/06 04:38:33;;;;;;;;;0.00;0.00;;;;;11.97;75.21;101681.09;5052941;28;45558;-67
2023/01/06 04:40:59;;;;;;;;;0.00;0.00;;;;;12.00;74.80;101674.13;5056331;28;45484;-67
2023/01/06 04:43:24;;;;;;;;;0.00;0.00;;;;;11.94;75.10;101678.44;5057111;28;46215;-67
2023/01/06 04:45:50;;;;;;;;;0.00;0.00;;;;;12.02;75.57;101679.41;5053909;28;45462;-68
2023/01/06 04:48:15;;;;;;;;;0.67;0.00;;;;;11.96;75.89;101659.22;5053680;28;45460;-67
2023/01/06 04:50:41;;;;;;;;;0.00;0.00;;;;;11.97;75.42;101666.22;5057889;28;45455;-67
2023/01/06 04:53:08;;;;;;;;;0.00;0.00;;;;;11.96;75.24;101656.59;5054812;28;45737;-68
2023/01/06 04:55:37;;;;;;;;;0.33;0.33;;;;;12.02;75.54;101664.50;5053187;28;45640;-70
2023/01/06 04:58:03;;;;;;;;;0.00;0.00;;;;;12.02;75.47;101666.25;5053319;28;45585;-70
2023/01/06 05:00:29;;;;;;;;;1.00;0.00;;;;;12.08;75.21;101663.72;5052805;28;45507;-65
2023/01/06 05:02:55;;;;;;;;;0.00;0.00;;;;;12.15;74.99;101660.28;5052920;28;45901;-67
2023/01/06 05:05:24;;;;;;;;;0.00;0.00;;;;;12.18;75.12;101660.31;5056381;28;45648;-68
2023/01/06 05:07:53;;;;;;;;;0.67;0.00;;;;;12.12;74.72;101656.75;5066742;28;45305;-69
2023/01/06 05:10:19;;;;;;;;;0.00;0.00;;;;;11.97;75.62;101639.97;5059793;28;45492;-66
2023/01/06 05:12:45;;;;;;;;;2.00;1.00;;;;;12.05;75.30;101640.94;5057239;28;45630;-67
2023/01/06 05:15:10;;;;;;;;;0.00;0.00;;;;;11.95;75.72;101651.31;5056130;28;45596;-67
2023/01/06 05:17:36;;;;;;;;;0.00;0.00;;;;;11.99;75.96;101650.50;5056850;28;45373;-67
2023/01/06 05:20:02;;;;;;;;;1.00;1.00;;;;;12.06;76.01;101649.69;5065067;28;45337;-68
2023/01/06 05:22:28;;;;;;;;;1.00;0.33;;;;;11.97;75.65;101645.22;5056755;28;45382;-68
2023/01/06 05:24:53;;;;;;;;;1.33;0.00;;;;;12.10;75.52;101648.84;5056562;28;45273;-69
2023/01/06 05:27:19;;;;;;;;;0.00;0.00;;;;;12.14;75.39;101655.00;5057169;28;45484;-69
2023/01/06 05:29:44;;;;;;;;;1.00;0.33;;;;;12.16;75.37;101667.28;5060679;28;45422;-69
2023/01/06 05:32:10;;;;;;;;;1.00;1.00;;;;;12.14;75.51;101657.63;5060372;28;46528;-68
2023/01/06 05:34:36;;;;;;;;;0.00;0.00;;;;;12.22;75.39;101676.97;5060285;28;45456;-68
2023/01/06 05:37:01;;;;;;;;;0.00;0.00;;;;;12.25;75.40;101683.16;5060625;28;45531;-67
2023/01/06 05:39:27;;;;;;;;;0.00;0.00;;;;;12.28;75.61;101685.78;5060621;28;45413;-67
2023/01/06 05:41:52;;;;;;;;;0.00;0.00;;;;;12.25;75.39;101671.78;5060507;28;45405;-67
2023/01/06 05:44:18;;;;;;;;;0.33;0.00;;;;;12.35;75.26;101686.75;5040977;28;45490;-67
2023/01/06 05:46:43;;;;;;;;;1.33;0.00;;;;;12.33;75.10;101685.84;5054819;28;45530;-68
2023/01/06 05:49:09;;;;;;;;;1.00;0.00;;;;;12.34;75.18;101687.63;5055781;28;45529;-68
2023/01/06 05:51:35;;;;;;;;;0.33;0.33;;;;;12.08;75.13;101637.47;5069129;28;46526;-69
2023/01/06 05:54:00;;;;;;;;;0.00;0.00;;;;;12.36;74.74;101677.09;5056395;28;45372;-67
2023/01/06 05:56:26;;;;;;;;;0.00;0.00;;;;;12.42;75.12;101692.94;5056373;28;45374;-67
2023/01/06 05:58:52;;;;;;;;;0.00;0.00;;;;;12.43;74.86;101692.06;5056097;28;45869;-69
2023/01/06 06:01:23;;;;;;;;;2.00;0.33;;;;;12.37;74.74;101689.41;5060553;28;45676;-67
2023/01/06 06:03:49;;;;;;;;;0.00;0.00;;;;;12.26;75.06;101700.66;5046406;28;45536;-68
2023/01/06 06:06:16;;;;;;;;;0.00;0.00;;;;;12.29;74.90;101699.81;5060322;28;45369;-67
2023/01/06 06:08:41;;;;;;;;;0.00;0.00;;;;;12.30;74.86;101693.69;5059843;28;45245;-64
2023/01/06 06:11:10;;;;;;;;;0.00;0.00;;;;;12.32;75.23;101699.84;5055638;28;45846;-67
2023/01/06 06:13:36;;;;;;;;;0.00;0.00;;;;;12.26;74.57;101676.16;5056715;28;45365;-67
2023/01/06 06:16:04;;;;;;;;;1.33;0.00;;;;;12.31;74.94;101687.56;5057617;28;45975;-65
2023/01/06 06:18:29;;;;;;;;;1.00;1.00;;;;;12.31;75.27;101695.44;5055629;28;45479;-64
2023/01/06 06:21:04;;;;;;;;;0.67;0.67;;;;;12.30;75.02;101696.34;5058767;28;46227;-67
2023/01/06 06:23:30;;;;;;;;;0.00;0.00;;;;;12.30;75.10;101697.19;5059860;28;45582;-64
2023/01/06 06:25:56;;;;;;;;;0.33;0.33;;;;;12.36;74.79;101701.63;5060115;28;45382;-67
2023/01/06 06:28:22;;;;;;;;;0.00;0.00;;;;;12.28;74.46;101693.69;5058244;28;46428;-67
2023/01/06 06:30:48;;;;;;;;;0.00;0.00;;;;;12.20;75.07;101682.22;5070500;28;46844;-68
2023/01/06 06:33:13;;;;;;;;;2.00;0.33;;;;;12.21;75.22;101675.22;5055795;28;45409;-65
2023/01/06 06:35:39;;;;;;;;;0.00;0.00;;;;;12.23;75.47;101692.75;5058514;28;45438;-64
2023/01/06 06:38:05;;;;;;;;;0.00;0.00;;;;;12.29;74.63;101703.34;5059564;28;45419;-68
2023/01/06 06:40:30;;;;;;;;;1.00;1.00;;;;;12.27;75.03;101696.31;5055054;28;45981;-69
2023/01/06 06:42:56;;;;;;;;;2.00;0.67;;;;;12.22;74.72;101682.22;5070875;28;45446;-67
2023/01/06 06:45:22;;;;;;;;;1.00;1.00;;;;;12.40;74.84;101711.31;5055539;28;45950;-67
2023/01/06 06:47:48;;;;;;;;;0.33;0.33;;;;;12.34;74.57;101706.00;5053677;28;45561;-64
2023/01/06 06:50:13;;;;;;;;;1.00;1.00;;;;;12.36;74.69;101709.50;5055114;28;45561;-65
2023/01/06 06:52:39;;;;;;;;;2.00;2.00;;;;;12.40;74.50;101697.31;5054696;28;45506;-65
2023/01/06 06:55:05;;;;;;;;;4.33;3.00;;;;;12.35;74.56;101697.25;5055440;28;45313;-66
2023/01/06 06:57:30;;;;;;;;;2.00;2.00;;;;;12.37;75.03;101697.28;5054177;28;45449;-64
2023/01/06 06:59:56;;;;;;;;;1.67;1.00;;;;;12.39;74.46;101711.31;5053171;28;46839;-67
2023/01/06 07:02:21;;;;;;;;;6.33;3.00;;;;;12.32;74.48;101696.34;5057267;28;45502;-69
2023/01/06 07:04:47;;;;;;;;;2.00;2.00;;;;;12.41;74.35;101707.84;5058764;28;45446;-67
2023/01/06 07:07:12;;;;;;;;;2.00;2.00;;;;;12.28;75.06;101709.44;5055582;28;45593;-65
2023/01/06 07:09:38;;;;;;;;;2.00;2.00;;;;;12.24;75.33;101715.53;5055354;28;45498;-67
2023/01/06 07:12:04;;;;;;;;;2.00;2.00;;;;;12.28;75.39;101721.69;5059579;28;45239;-67
2023/01/06 07:14:30;;;;;;;;;2.00;1.00;;;;;12.24;75.76;101726.06;5057267;28;45309;-67
2023/01/06 07:17:00;;;;;;;;;1.33;1.33;;;;;12.20;75.48;101711.13;5054954;28;45792;-68
2023/01/06 07:19:26;;;;;;;;;1.33;1.33;;;;;12.33;75.01;101720.00;5054755;28;45966;-67
2023/01/06 07:21:51;;;;;;;;;3.33;1.33;;;;;12.35;75.59;101723.53;5054712;28;45393;-67
2023/01/06 07:24:17;;;;;;;;;0.00;0.00;;;;;12.36;75.37;101722.66;5055083;28;45348;-68
2023/01/06 07:26:42;;;;;;;;;3.00;3.00;;;;;12.40;75.24;101720.94;5054644;28;45271;-66
2023/01/06 07:29:08;;;;;;;;;3.67;2.00;;;;;12.27;75.52;101712.94;5053476;28;45558;-68
2023/01/06 07:31:34;;;;;;;;;2.00;1.00;;;;;12.22;75.79;101706.75;5052867;28;45465;-69
2023/01/06 07:33:59;;;;;;;;;3.00;1.33;;;;;12.37;76.26;101723.56;5056363;28;45570;-67
2023/01/06 07:36:25;;;;;;;;;3.00;2.00;;;;;12.31;75.61;101708.59;5054638;28;45389;-68
2023/01/06 07:38:50;;;;;;;;;2.67;1.33;;;;;12.40;75.67;101720.94;5053145;28;45700;-67
2023/01/06 07:41:16;;;;;;;;;1.67;1.67;;;;;12.41;75.37;101710.47;5055053;28;45349;-68
2023/01/06 07:43:41;;;;;;;;;2.00;2.00;;;;;12.38;75.70;101712.16;5054830;28;45745;-68
2023/01/06 07:46:08;;;;;;;;;2.00;2.00;;;;;12.26;76.38;101716.41;5054206;28;45395;-67
2023/01/06 07:48:33;;;;;;;;;2.00;1.00;;;;;12.24;76.63;101717.28;5052704;28;47031;-67
2023/01/06 07:50:59;;;;;;;;;1.00;1.00;;;;;12.32;76.00;101723.50;5053822;28;45468;-67
2023/01/06 07:53:24;;;;;;;;;1.00;1.00;;;;;12.35;75.97;101725.28;5053509;28;45569;-66
2023/01/06 07:55:53;;;;;;;;;3.00;2.00;;;;;12.29;76.13;101724.34;5054013;28;45496;-68
2023/01/06 07:58:22;;;;;;;;;10.33;10.33;;;;;12.36;76.57;101727.03;5054033;28;46566;-66
2023/01/06 08:00:48;;;;;;;;;4.33;4.33;;;;;12.30;76.09;101726.09;5053854;28;45458;-66
2023/01/06 08:03:14;;;;;;;;;4.33;2.33;;;;;12.31;76.56;101729.59;5053894;28;45394;-66
2023/01/06 08:05:41;;;;;;;;;1.33;1.33;;;;;12.27;76.47;101726.06;5054145;28;45594;-65
2023/01/06 08:08:07;;;;;;;;;1.00;1.00;;;;;12.39;76.11;101732.34;5054788;28;46696;-65
2023/01/06 08:10:33;;;;;;;;;2.67;2.00;;;;;12.45;76.52;101737.63;5057839;28;45413;-67
2023/01/06 08:12:58;;;;;;;;;2.67;1.67;;;;;12.36;75.84;101719.16;5045201;28;45402;-64
2023/01/06 08:15:25;;;;;;;;;2.00;2.00;;;;;12.36;76.27;101713.88;5054368;28;45711;-65
2023/01/06 08:17:54;;;;;;;;;3.67;2.33;;;;;12.38;75.88;101722.66;5053559;28;46567;-65
2023/01/06 08:20:20;;;;;;;;;2.67;2.00;;;;;12.35;76.43;101728.78;5068734;28;45555;-68
2023/01/06 08:22:45;;;;;;;;;4.00;2.33;;;;;12.33;76.35;101725.25;5055245;28;45502;-64
2023/01/06 08:25:11;;;;;;;;;1.00;1.00;;;;;12.39;76.34;101714.81;5056611;28;45512;-64
2023/01/06 08:27:37;;;;;;;;;2.33;2.33;;;;;12.41;76.34;101725.31;5053602;28;46544;-66
2023/01/06 08:30:03;;;;;;;;;2.00;2.00;;;;;12.54;75.59;101734.22;5053268;28;45799;-66
2023/01/06 08:32:29;;;;;;;;;3.33;3.33;;;;;12.58;75.47;101736.91;5053103;28;45398;-69
2023/01/06 08:34:54;;;;;;;;;2.33;2.00;;;;;12.49;75.84;101737.69;5054038;28;45478;-67
2023/01/06 08:37:20;;;;;;;;;2.00;2.00;;;;;12.45;75.63;101735.88;5051983;28;46826;-69
2023/01/06 08:39:45;;;;;;;;;2.00;2.00;;;;;12.47;76.16;101752.53;5053133;28;45344;-66
2023/01/06 08:42:14;;;;;;;;;1.67;1.33;;;;;12.50;76.18;101752.59;5053490;28;45396;-68
2023/01/06 08:44:40;;;;;;;;;2.33;2.00;;;;;12.45;75.77;101745.50;5054042;28;45392;-69
2023/01/06 08:47:05;;;;;;;;;2.33;2.00;;;;;12.44;76.00;101751.66;5053166;28;45481;-67
2023/01/06 08:49:32;;;;;;;;;3.00;1.33;;;;;12.45;75.96;101741.13;5052774;28;45442;-69
2023/01/06 08:51:58;;;;;;;;;1.67;1.00;;;;;12.45;75.50;101728.00;5053107;28;45409;-66
2023/01/06 08:54:23;;;;;;;;;2.00;2.00;;;;;12.57;76.00;101745.63;5055533;28;45335;-68
2023/01/06 08:56:49;;;;;;;;;4.67;2.33;;;;;12.65;75.69;101745.72;5054603;28;46032;-67
2023/01/06 08:59:16;;;;;;;;;2.00;2.00;;;;;12.62;75.40;101746.56;5053552;28;45448;-67
2023/01/06 09:01:43;;;;;;;;;4.67;3.00;;;;;12.63;75.78;101756.22;5056327;28;45467;-66
2023/01/06 09:04:09;;;;;;;;;3.00;3.00;;;;;12.66;75.46;101750.09;5052847;28;45586;-67
2023/01/06 09:06:36;;;;;;;;;3.00;2.00;;;;;12.59;75.36;101750.91;5053640;28;46369;-68
2023/01/06 09:09:04;;;;;;;;;2.67;2.67;;;;;12.50;75.52;101754.31;5053537;28;46088;-66
2023/01/06 09:11:30;;;;;;;;;3.67;2.00;;;;;12.37;75.81;101742.81;5053275;28;45815;-69
2023/01/06 09:13:56;;;;;;;;;4.33;3.00;;;;;12.42;75.94;101750.75;5053325;28;45626;-67
2023/01/06 09:16:22;;;;;;;;;7.00;4.00;;;;;12.35;76.41;101749.78;5051474;28;47504;-68
2023/01/06 09:18:51;;;;;;;;;2.00;2.00;;;;;12.30;76.86;101752.38;5053833;28;45343;-67
2023/01/06 09:21:18;;;;;;;;;5.67;3.33;;;;;12.29;77.29;101744.47;5057581;28;45419;-67
2023/01/06 09:23:44;;;;;;;;;7.67;3.00;;;;;12.23;77.61;101753.16;5052814;28;45662;-67
2023/01/06 09:26:10;;;;;;;;;7.33;5.00;;;;;12.29;76.89;101750.63;5052413;28;46493;-67
2023/01/06 09:28:36;;;;;;;;;2.67;1.67;;;;;12.23;77.57;101754.91;5034491;28;45537;-69
2023/01/06 09:31:01;;;;;;;;;4.00;4.00;;;;;12.32;77.62;101751.53;5043967;28;45428;-70
2023/01/06 09:33:27;;;;;;;;;2.00;2.00;;;;;12.39;77.10;101753.34;5056414;28;45452;-69
2023/01/06 09:35:52;;;;;;;;;2.33;2.33;;;;;12.29;76.69;101729.59;5057180;28;45518;-68
2023/01/06 09:38:18;;;;;;;;;3.67;2.00;;;;;12.44;76.92;101756.91;5057057;28;45402;-68
2023/01/06 09:41:01;;;;;;;;;4.00;4.00;;;;;12.51;76.55;101762.22;5052662;28;45884;-66
2023/01/06 09:44:00;;;;;;;;;4.33;2.00;;;;;12.57;76.38;101766.66;5053207;28;45440;-67
2023/01/06 09:46:31;;;;;;;;;4.67;3.00;;;;;12.52;76.30;101763.09;5055113;28;45525;-67
2023/01/06 09:49:26;;;;;;;;;3.00;3.00;;;;;12.52;76.65;101763.09;5052631;28;46053;-67
2023/01/06 09:52:01;;;;;;;;;3.00;3.00;;;;;12.53;76.73;101764.88;5055172;28;45698;-67
2023/01/06 09:54:33;;;;;;;;;3.00;3.00;;;;;12.44;77.37;101751.66;5057971;28;45494;-69
2023/01/06 09:57:09;;;;;;;;;3.67;3.00;;;;;12.41;77.25;101762.09;5056699;28;45459;-65
2023/01/06 09:59:56;;;;;;;;;9.00;3.33;;;;;12.55;76.76;101770.13;5056270;28;45464;-66
2023/01/06 10:02:29;;;;;;;;;4.00;4.00;;;;;12.48;76.90;101774.44;5054695;28;45839;-64
2023/01/06 10:04:54;;;;;;;;;3.00;3.00;;;;;12.48;77.26;101775.34;5055764;28;45337;-65
2023/01/06 10:07:45;;;;;;;;;5.33;3.33;;;;;12.44;77.34;101773.53;5057404;28;46366;-65
2023/01/06 10:10:21;;;;;;;;;5.00;5.00;;;;;12.45;77.00;101771.78;5060251;28;45452;-67
2023/01/06 10:13:02;;;;;;;;;7.67;4.33;;;;;12.40;77.60;101776.13;5056622;28;45534;-66
2023/01/06 10:15:50;;;;;;;;;4.00;3.33;;;;;12.38;77.56;101773.47;5055921;28;45498;-68
2023/01/06 10:18:43;;;;;;;;;4.67;3.33;;;;;12.42;77.15;101774.41;5056165;28;46617;-69
2023/01/06 10:21:26;;;;;;;;;6.67;4.33;;;;;12.33;77.11;101754.16;5044678;28;45457;-67
2023/01/06 10:24:07;;;;;;;;;4.00;4.00;;;;;12.42;77.12;101770.00;5055343;28;45893;-67
2023/01/06 10:26:43;;;;;;;;;3.00;3.00;;;;;12.40;77.77;101771.75;5071407;28;45519;-67
2023/01/06 10:29:16;;;;;;;;;3.00;3.00;;;;;12.40;77.18;101770.88;5054969;28;46446;-66
2023/01/06 10:31:48;;;;;;;;;4.67;3.00;;;;;12.45;77.37;101766.53;5059405;28;45701;-69
2023/01/06 10:34:24;;;;;;;;;6.33;3.67;;;;;12.47;77.17;101768.31;5057812;28;45494;-65
2023/01/06 10:37:10;;;;;;;;;5.00;3.00;;;;;12.51;77.27;101772.75;5054077;28;45374;-65
2023/01/06 10:39:41;;;;;;;;;5.00;4.00;;;;;12.51;76.78;101766.63;5054602;28;45787;-65
2023/01/06 10:45:13;;;;;;;;;6.67;5.33;;;;;12.54;77.26;101757.88;5046758;28;45496;-66
2023/01/06 10:47:41;;;;;;;;;3.67;3.67;;;;;12.51;77.09;101759.59;5057936;28;45559;-67
2023/01/06 10:50:11;;;;;;;;;4.67;4.00;;;;;12.57;76.89;101771.03;5057308;28;46854;-68
2023/01/06 10:52:37;;;;;;;;;3.33;3.33;;;;;12.64;76.60;101768.47;5057818;28;45489;-68
2023/01/06 10:55:05;;;;;;;;;5.00;3.00;;;;;12.67;76.13;101770.25;5059164;28;45486;-67
2023/01/06 10:57:39;;;;;;;;;6.00;4.33;;;;;12.70;76.62;101762.44;5056589;28;45431;-67
2023/01/06 11:00:16;;;;;;;;;4.00;4.00;;;;;12.78;76.16;101759.84;5053377;28;47285;-68
2023/01/06 11:03:02;;;;;;;;;5.67;3.67;;;;;12.72;75.91;101750.19;5055114;28;45495;-69
2023/01/06 11:05:30;;;;;;;;;6.33;5.00;;;;;12.62;75.90;101725.53;5059364;28;45454;-67
2023/01/06 11:08:05;;;;;;;;;2.67;2.67;;;;;12.88;76.14;101743.28;5058244;28;45528;-67
2023/01/06 11:10:43;;;;;;;;;4.00;4.00;;;;;12.90;75.68;101752.06;5059112;28;46676;-68
2023/01/06 11:13:30;;;;;;;;;8.00;6.67;;;;;12.83;76.22;101738.00;5058974;28;45541;-67
2023/01/06 11:15:58;;;;;;;;;5.00;4.00;;;;;12.95;75.73;101734.59;5042401;28;45433;-68
2023/01/06 11:18:33;;;;;;;;;5.67;4.67;;;;;13.02;75.32;101741.66;5054814;28;45459;-65
2023/01/06 11:21:06;;;;;;;;;5.00;5.00;;;;;13.02;75.73;101735.53;5056755;28;46884;-67
2023/01/06 11:23:32;;;;;;;;;4.00;4.00;;;;;13.10;75.61;101733.84;5058794;28;45446;-65
2023/01/06 11:26:01;;;;;;;;;8.00;5.33;;;;;13.17;75.25;101727.75;5057812;28;45750;-68
2023/01/06 11:28:26;;;;;;;;;7.00;6.67;;;;;13.18;74.78;101728.63;5057190;28;45543;-64
2023/01/06 11:31:04;;;;;;;;;8.67;7.00;;;;;13.16;74.99;101725.97;5054224;28;45708;-65
2023/01/06 11:33:32;;;;;;;;;2.33;2.33;;;;;13.11;75.53;101720.69;5054144;28;45813;-65
2023/01/06 11:36:06;;;;;;;;;5.00;5.00;;;;;13.13;75.12;101718.94;5069555;28;45817;-69
2023/01/06 11:38:44;;;;;;;;;6.00;6.00;;;;;13.01;75.27;101707.47;5057556;28;45464;-68
2023/01/06 11:41:11;;;;;;;;;4.00;4.00;;;;;13.05;75.41;101720.66;5057193;28;45938;-68
2023/01/06 11:43:45;;;;;;;;;5.00;4.00;;;;;13.09;75.41;101708.41;5058664;28;45439;-68
2023/01/06 11:46:14;;;;;;;;;8.33;3.00;;;;;13.19;75.32;101719.84;5054914;28;45546;-68